Adventuress — WCX8691 — position and weather

sailwx.info

Track history (hours):
 
Tides and Currents Weather Stations Pressure Air Temp Water Temp Dewpoint Dewpoint Depression Visibility Wind Speed Wind Dir Waves Ship Positions

Adventuress (United States)

Ship's website: http://www.soundexp.org/

Owner: SOUND EXPERIENCE, PORT TOWNSEND, WA. More information available from US FCC via Universal Licensing System and Coast Guard Vessel Documentation Center.

Last reported at 2016-Jul-25 00:10 UTC. Time now 2016-Jul-25 02:28 UTC.
Position N 48°30' W 122°52'.

Type: Passenger vessel. MMSI: 367323180.

Date/timePositionNaut miles runAvg speedWind from/ knotsBaromVisibWave heightAir tempDewpointWater temp
2016-Jul-25 00:10N 48°30' W 122°52'0 0.0
2016-Jul-24 23:31N 48°30' W 122°52'1 1.5
2016-Jul-24 22:31N 48°31' W 122°50'4 2.0
2016-Jul-24 20:30N 48°30' W 122°44'3 2.7
2016-Jul-24 19:32N 48°31' W 122°41'3 2.5
2016-Jul-24 18:33N 48°32' W 122°37'1 0.9
2016-Jul-24 17:30N 48°31' W 122°36'0 0.0
2016-Jul-24 16:30N 48°31' W 122°36'0 0.0
2016-Jul-24 15:30N 48°31' W 122°36'0 0.0
2016-Jul-24 14:30N 48°31' W 122°36'0 0.0
2016-Jul-24 13:30N 48°31' W 122°36'0 0.0
2016-Jul-24 12:30N 48°31' W 122°36'0 0.0
2016-Jul-24 11:24N 48°31' W 122°36'0 0.0
2016-Jul-24 10:30N 48°31' W 122°36'0 0.0
2016-Jul-24 09:24N 48°31' W 122°36'0 0.0
2016-Jul-24 08:30N 48°31' W 122°36'0 0.0
2016-Jul-24 07:30N 48°31' W 122°36'0 0.0
2016-Jul-24 06:30N 48°31' W 122°36'0 0.0
2016-Jul-24 05:30N 48°31' W 122°36'0 0.0
2016-Jul-24 04:30N 48°31' W 122°36'0 0.0
2016-Jul-24 03:30N 48°31' W 122°36'0 0.0
2016-Jul-24 02:30N 48°31' W 122°36'0 0.0
2016-Jul-24 01:30N 48°31' W 122°36'1 0.6
2016-Jul-24 00:32N 48°31' W 122°36'1 0.6
2016-Jul-23 23:33N 48°31' W 122°35'1 0.7
2016-Jul-23 22:33N 48°31' W 122°36'0 0.5
2016-Jul-23 21:30N 48°31' W 122°36'0 0.0
2016-Jul-23 20:30N 48°31' W 122°36'0 0.0
2016-Jul-23 19:30N 48°31' W 122°36'0 0.0
2016-Jul-23 18:24N 48°31' W 122°36'0 0.0
2016-Jul-23 17:30N 48°31' W 122°36'0 0.0
2016-Jul-23 16:30N 48°31' W 122°36'0 0.0
2016-Jul-23 15:30N 48°31' W 122°36'0 0.0
2016-Jul-23 14:30N 48°31' W 122°36'0 0.0
2016-Jul-23 13:30N 48°31' W 122°36'0 0.0
2016-Jul-23 12:18N 48°31' W 122°36'0 0.0
2016-Jul-23 11:30N 48°31' W 122°36'0 0.0
2016-Jul-23 10:30N 48°31' W 122°36'0 0.0
2016-Jul-23 09:30N 48°31' W 122°36'0 0.0
2016-Jul-23 08:24N 48°31' W 122°36'0 0.0
2016-Jul-23 07:30N 48°31' W 122°36'0 0.0
2016-Jul-23 06:30N 48°31' W 122°36'0 0.0
2016-Jul-23 04:30N 48°31' W 122°36'0 0.0
2016-Jul-23 03:18N 48°31' W 122°36'0 0.0
2016-Jul-23 02:24N 48°31' W 122°36'0 0.0
2016-Jul-23 01:30N 48°31' W 122°36'0 0.0
2016-Jul-23 00:30N 48°31' W 122°36'0 0.4
2016-Jul-22 23:33N 48°31' W 122°36'1 0.7
2016-Jul-22 22:33N 48°31' W 122°35'10 4.7
2016-Jul-22 20:21N 48°31' W 122°51'4 0.1
2016-Jul-20 17:32N 48°32' W 122°57'1 0.2
2016-Jul-20 11:14N 48°33' W 122°56'0 0.0
2016-Jul-20 08:14N 48°33' W 122°56'0 0.0
2016-Jul-20 05:26N 48°33' W 122°56'0 0.0
2016-Jul-20 04:20N 48°33' W 122°56'2 2.2
2016-Jul-20 03:33N 48°33' W 122°59'1 1.5
2016-Jul-20 02:33N 48°32' W 123°01'0 0.0
2016-Jul-20 01:33N 48°32' W 123°01'0 0.0
2016-Jul-20 00:33N 48°32' W 123°01'0 0.0
2016-Jul-19 23:33N 48°32' W 123°01'0 0.3
2016-Jul-19 22:33N 48°32' W 123°01'1 1.1
2016-Jul-19 21:33N 48°33' W 122°59'2 2.4
2016-Jul-19 20:33N 48°33' W 122°56'1 1.1
2016-Jul-19 19:33N 48°34' W 122°55'1 1.4
2016-Jul-19 18:33N 48°35' W 122°53'1 0.0
2016-Jul-19 00:11N 48°34' W 122°52'1 1.9
2016-Jul-18 23:29N 48°35' W 122°50'1 0.7
2016-Jul-18 22:22N 48°36' W 122°50'1 1.7
2016-Jul-18 21:32N 48°34' W 122°51'2 1.4
2016-Jul-18 20:29N 48°33' W 122°50'11 0.5
2016-Jul-17 23:33N 48°32' W 122°34'1 1.1
2016-Jul-17 22:33N 48°32' W 122°35'1 1.1
2016-Jul-17 21:24N 48°31' W 122°36'0 0.0
2016-Jul-17 20:30N 48°31' W 122°36'0 0.0
2016-Jul-17 19:29N 48°31' W 122°36'0 0.0
2016-Jul-17 18:30N 48°31' W 122°36'0 0.0
2016-Jul-17 17:30N 48°31' W 122°36'0 0.0
2016-Jul-17 16:24N 48°31' W 122°36'0 0.0
2016-Jul-17 15:30N 48°31' W 122°36'0 0.0
2016-Jul-17 14:30N 48°31' W 122°36'0 0.0
2016-Jul-17 13:30N 48°31' W 122°36'0 0.0
2016-Jul-17 12:30N 48°31' W 122°36'0 0.0
2016-Jul-17 06:29N 48°31' W 122°36'0 0.0
2016-Jul-17 03:33N 48°31' W 122°36'0 0.0
2016-Jul-17 02:29N 48°31' W 122°36'0 0.0
2016-Jul-17 01:33N 48°31' W 122°36'0 0.0
2016-Jul-17 00:31N 48°31' W 122°36'0 0.0
2016-Jul-16 23:16N 48°31' W 122°36'0 0.0
2016-Jul-16 22:33N 48°31' W 122°36'0 0.0
2016-Jul-16 21:32N 48°31' W 122°36'0 0.3
2016-Jul-16 20:33N 48°31' W 122°36'  
Track history (hours):
 
Tides and Currents Weather Stations Pressure Air Temp Water Temp Dewpoint Dewpoint Depression Visibility Wind Speed Wind Dir Waves Ship Positions

Adventuress (United States)

Ship's website: http://www.soundexp.org/

Owner: SOUND EXPERIENCE, PORT TOWNSEND, WA. More information available from US FCC via Universal Licensing System and Coast Guard Vessel Documentation Center.

Last reported at 2016-Jul-25 00:10 UTC. Time now 2016-Jul-25 02:28 UTC.
Position N 48°30' W 122°52'.

Type: Passenger vessel. MMSI: 367323180.

Date/timePositionNaut miles runAvg speedWind from/ knotsBaromVisibWave heightAir tempDewpointWater temp
2016-Jul-25 00:10N 48°30' W 122°52'0 0.0
2016-Jul-24 23:31N 48°30' W 122°52'1 1.5
2016-Jul-24 22:31N 48°31' W 122°50'4 2.0
2016-Jul-24 20:30N 48°30' W 122°44'3 2.7
2016-Jul-24 19:32N 48°31' W 122°41'3 2.5
2016-Jul-24 18:33N 48°32' W 122°37'1 0.9
2016-Jul-24 17:30N 48°31' W 122°36'0 0.0
2016-Jul-24 16:30N 48°31' W 122°36'0 0.0
2016-Jul-24 15:30N 48°31' W 122°36'0 0.0
2016-Jul-24 14:30N 48°31' W 122°36'0 0.0
2016-Jul-24 13:30N 48°31' W 122°36'0 0.0
2016-Jul-24 12:30N 48°31' W 122°36'0 0.0
2016-Jul-24 11:24N 48°31' W 122°36'0 0.0
2016-Jul-24 10:30N 48°31' W 122°36'0 0.0
2016-Jul-24 09:24N 48°31' W 122°36'0 0.0
2016-Jul-24 08:30N 48°31' W 122°36'0 0.0
2016-Jul-24 07:30N 48°31' W 122°36'0 0.0
2016-Jul-24 06:30N 48°31' W 122°36'0 0.0
2016-Jul-24 05:30N 48°31' W 122°36'0 0.0
2016-Jul-24 04:30N 48°31' W 122°36'0 0.0
2016-Jul-24 03:30N 48°31' W 122°36'0 0.0
2016-Jul-24 02:30N 48°31' W 122°36'0 0.0
2016-Jul-24 01:30N 48°31' W 122°36'1 0.6
2016-Jul-24 00:32N 48°31' W 122°36'1 0.6
2016-Jul-23 23:33N 48°31' W 122°35'1 0.7
2016-Jul-23 22:33N 48°31' W 122°36'0 0.5
2016-Jul-23 21:30N 48°31' W 122°36'0 0.0
2016-Jul-23 20:30N 48°31' W 122°36'0 0.0
2016-Jul-23 19:30N 48°31' W 122°36'0 0.0
2016-Jul-23 18:24N 48°31' W 122°36'0 0.0
2016-Jul-23 17:30N 48°31' W 122°36'0 0.0
2016-Jul-23 16:30N 48°31' W 122°36'0 0.0
2016-Jul-23 15:30N 48°31' W 122°36'0 0.0
2016-Jul-23 14:30N 48°31' W 122°36'0 0.0
2016-Jul-23 13:30N 48°31' W 122°36'0 0.0
2016-Jul-23 12:18N 48°31' W 122°36'0 0.0
2016-Jul-23 11:30N 48°31' W 122°36'0 0.0
2016-Jul-23 10:30N 48°31' W 122°36'0 0.0
2016-Jul-23 09:30N 48°31' W 122°36'0 0.0
2016-Jul-23 08:24N 48°31' W 122°36'0 0.0
2016-Jul-23 07:30N 48°31' W 122°36'0 0.0
2016-Jul-23 06:30N 48°31' W 122°36'0 0.0
2016-Jul-23 04:30N 48°31' W 122°36'0 0.0
2016-Jul-23 03:18N 48°31' W 122°36'0 0.0
2016-Jul-23 02:24N 48°31' W 122°36'0 0.0
2016-Jul-23 01:30N 48°31' W 122°36'0 0.0
2016-Jul-23 00:30N 48°31' W 122°36'0 0.4
2016-Jul-22 23:33N 48°31' W 122°36'1 0.7
2016-Jul-22 22:33N 48°31' W 122°35'10 4.7
2016-Jul-22 20:21N 48°31' W 122°51'4 0.1
2016-Jul-20 17:32N 48°32' W 122°57'1 0.2
2016-Jul-20 11:14N 48°33' W 122°56'0 0.0
2016-Jul-20 08:14N 48°33' W 122°56'0 0.0
2016-Jul-20 05:26N 48°33' W 122°56'0 0.0
2016-Jul-20 04:20N 48°33' W 122°56'2 2.2
2016-Jul-20 03:33N 48°33' W 122°59'1 1.5
2016-Jul-20 02:33N 48°32' W 123°01'0 0.0
2016-Jul-20 01:33N 48°32' W 123°01'0 0.0
2016-Jul-20 00:33N 48°32' W 123°01'0 0.0
2016-Jul-19 23:33N 48°32' W 123°01'0 0.3
2016-Jul-19 22:33N 48°32' W 123°01'1 1.1
2016-Jul-19 21:33N 48°33' W 122°59'2 2.4
2016-Jul-19 20:33N 48°33' W 122°56'1 1.1
2016-Jul-19 19:33N 48°34' W 122°55'1 1.4
2016-Jul-19 18:33N 48°35' W 122°53'1 0.0
2016-Jul-19 00:11N 48°34' W 122°52'1 1.9
2016-Jul-18 23:29N 48°35' W 122°50'1 0.7
2016-Jul-18 22:22N 48°36' W 122°50'1 1.7
2016-Jul-18 21:32N 48°34' W 122°51'2 1.4
2016-Jul-18 20:29N 48°33' W 122°50'11 0.5
2016-Jul-17 23:33N 48°32' W 122°34'1 1.1
2016-Jul-17 22:33N 48°32' W 122°35'1 1.1
2016-Jul-17 21:24N 48°31' W 122°36'0 0.0
2016-Jul-17 20:30N 48°31' W 122°36'0 0.0
2016-Jul-17 19:29N 48°31' W 122°36'0 0.0
2016-Jul-17 18:30N 48°31' W 122°36'0 0.0
2016-Jul-17 17:30N 48°31' W 122°36'0 0.0
2016-Jul-17 16:24N 48°31' W 122°36'0 0.0
2016-Jul-17 15:30N 48°31' W 122°36'0 0.0
2016-Jul-17 14:30N 48°31' W 122°36'0 0.0
2016-Jul-17 13:30N 48°31' W 122°36'0 0.0
2016-Jul-17 12:30N 48°31' W 122°36'0 0.0
2016-Jul-17 06:29N 48°31' W 122°36'0 0.0
2016-Jul-17 03:33N 48°31' W 122°36'0 0.0
2016-Jul-17 02:29N 48°31' W 122°36'0 0.0
2016-Jul-17 01:33N 48°31' W 122°36'0 0.0
2016-Jul-17 00:31N 48°31' W 122°36'0 0.0
2016-Jul-16 23:16N 48°31' W 122°36'0 0.0
2016-Jul-16 22:33N 48°31' W 122°36'0 0.0
2016-Jul-16 21:32N 48°31' W 122°36'0 0.3
2016-Jul-16 20:33N 48°31' W 122°36'  

Dump ship's entire track history